sensor_id;sensor_type;location;lat;lon;timestamp;temperature;humidity
14604;DHT22;7388;51.078;13.740;2023-11-21T00:00:16;12.90;49.30
14604;DHT22;7388;51.078;13.740;2023-11-21T00:14:55;12.90;49.40
14604;DHT22;7388;51.078;13.740;2023-11-21T00:17:21;12.90;49.50
14604;DHT22;7388;51.078;13.740;2023-11-21T00:27:05;12.90;49.50
14604;DHT22;7388;51.078;13.740;2023-11-21T00:29:31;12.90;49.50
14604;DHT22;7388;51.078;13.740;2023-11-21T00:31:58;12.90;49.40
14604;DHT22;7388;51.078;13.740;2023-11-21T00:34:23;13.00;49.60
14604;DHT22;7388;51.078;13.740;2023-11-21T00:36:49;12.90;49.60
14604;DHT22;7388;51.078;13.740;2023-11-21T00:41:41;13.00;49.60
14604;DHT22;7388;51.078;13.740;2023-11-21T00:44:07;13.00;49.50
14604;DHT22;7388;51.078;13.740;2023-11-21T00:46:33;13.00;49.50
14604;DHT22;7388;51.078;13.740;2023-11-21T00:56:18;13.10;49.50
14604;DHT22;7388;51.078;13.740;2023-11-21T00:58:43;13.10;49.40
14604;DHT22;7388;51.078;13.740;2023-11-21T01:06:07;13.00;49.30
14604;DHT22;7388;51.078;13.740;2023-11-21T01:08:34;13.00;49.30
14604;DHT22;7388;51.078;13.740;2023-11-21T01:15:54;13.00;49.30
14604;DHT22;7388;51.078;13.740;2023-11-21T01:23:13;13.00;49.50
14604;DHT22;7388;51.078;13.740;2023-11-21T01:25:39;13.00;49.50
14604;DHT22;7388;51.078;13.740;2023-11-21T01:30:32;12.90;49.50
14604;DHT22;7388;51.078;13.740;2023-11-21T01:35:25;12.90;49.70
14604;DHT22;7388;51.078;13.740;2023-11-21T01:37:50;13.00;49.60
14604;DHT22;7388;51.078;13.740;2023-11-21T01:40:16;13.00;49.70
14604;DHT22;7388;51.078;13.740;2023-11-21T01:42:42;12.90;49.80
14604;DHT22;7388;51.078;13.740;2023-11-21T01:45:12;12.90;49.80
14604;DHT22;7388;51.078;13.740;2023-11-21T01:47:39;12.90;50.50
14604;DHT22;7388;51.078;13.740;2023-11-21T01:50:08;12.90;51.00
14604;DHT22;7388;51.078;13.740;2023-11-21T01:52:37;13.00;50.90
14604;DHT22;7388;51.078;13.740;2023-11-21T01:55:06;13.00;49.90
14604;DHT22;7388;51.078;13.740;2023-11-21T01:59:58;13.10;49.80
14604;DHT22;7388;51.078;13.740;2023-11-21T02:02:26;13.10;50.00
14604;DHT22;7388;51.078;13.740;2023-11-21T02:07:18;13.10;49.90
14604;DHT22;7388;51.078;13.740;2023-11-21T02:09:44;13.10;49.80
14604;DHT22;7388;51.078;13.740;2023-11-21T02:12:10;13.10;49.60
14604;DHT22;7388;51.078;13.740;2023-11-21T02:14:37;13.20;49.60
14604;DHT22;7388;51.078;13.740;2023-11-21T02:19:29;13.20;49.30
14604;DHT22;7388;51.078;13.740;2023-11-21T02:29:22;13.30;49.30
14604;DHT22;7388;51.078;13.740;2023-11-21T02:31:50;13.30;49.30
14604;DHT22;7388;51.078;13.740;2023-11-21T02:34:17;13.30;49.20
14604;DHT22;7388;51.078;13.740;2023-11-21T02:36:44;13.30;49.20
14604;DHT22;7388;51.078;13.740;2023-11-21T02:39:10;13.30;49.10
14604;DHT22;7388;51.078;13.740;2023-11-21T02:44:05;13.30;48.90
14604;DHT22;7388;51.078;13.740;2023-11-21T02:46:35;13.30;48.90
14604;DHT22;7388;51.078;13.740;2023-11-21T02:49:04;13.30;48.80
14604;DHT22;7388;51.078;13.740;2023-11-21T02:51:32;13.30;48.70
14604;DHT22;7388;51.078;13.740;2023-11-21T02:53:58;13.30;48.60
14604;DHT22;7388;51.078;13.740;2023-11-21T03:01:22;13.20;48.60
14604;DHT22;7388;51.078;13.740;2023-11-21T03:08:46;13.10;48.40
14604;DHT22;7388;51.078;13.740;2023-11-21T03:11:12;13.10;48.30
14604;DHT22;7388;51.078;13.740;2023-11-21T03:16:09;13.00;48.40
14604;DHT22;7388;51.078;13.740;2023-11-21T03:18:34;12.90;48.60
14604;DHT22;7388;51.078;13.740;2023-11-21T03:23:29;12.80;48.80
14604;DHT22;7388;51.078;13.740;2023-11-21T03:25:55;12.80;49.00
14604;DHT22;7388;51.078;13.740;2023-11-21T03:28:20;12.70;49.10
14604;DHT22;7388;51.078;13.740;2023-11-21T03:33:12;12.70;49.10
14604;DHT22;7388;51.078;13.740;2023-11-21T03:42:57;12.90;48.80
14604;DHT22;7388;51.078;13.740;2023-11-21T03:45:23;12.70;48.60
14604;DHT22;7388;51.078;13.740;2023-11-21T03:47:49;12.80;48.50
14604;DHT22;7388;51.078;13.740;2023-11-21T03:50:15;12.80;48.50
14604;DHT22;7388;51.078;13.740;2023-11-21T03:52:41;12.80;48.50
14604;DHT22;7388;51.078;13.740;2023-11-21T03:55:07;12.80;48.40
14604;DHT22;7388;51.078;13.740;2023-11-21T03:59:59;12.70;48.50
14604;DHT22;7388;51.078;13.740;2023-11-21T04:04:51;12.60;48.30
14604;DHT22;7388;51.078;13.740;2023-11-21T04:07:17;12.60;48.40
14604;DHT22;7388;51.078;13.740;2023-11-21T04:09:43;12.60;48.60
14604;DHT22;7388;51.078;13.740;2023-11-21T04:14:35;12.60;48.80
14604;DHT22;7388;51.078;13.740;2023-11-21T04:26:46;12.60;48.90
14604;DHT22;7388;51.078;13.740;2023-11-21T04:29:12;12.50;48.80
14604;DHT22;7388;51.078;13.740;2023-11-21T04:31:38;12.60;48.70
14604;DHT22;7388;51.078;13.740;2023-11-21T04:36:30;13.00;48.90
14604;DHT22;7388;51.078;13.740;2023-11-21T04:53:38;12.50;49.00
14604;DHT22;7388;51.078;13.740;2023-11-21T04:56:05;12.60;49.60
14604;DHT22;7388;51.078;13.740;2023-11-21T04:58:31;12.50;49.80
14604;DHT22;7388;51.078;13.740;2023-11-21T05:00:58;12.50;49.80
14604;DHT22;7388;51.078;13.740;2023-11-21T05:03:24;12.60;49.00
14604;DHT22;7388;51.078;13.740;2023-11-21T05:05:50;12.50;49.20
14604;DHT22;7388;51.078;13.740;2023-11-21T05:08:15;12.50;49.30
14604;DHT22;7388;51.078;13.740;2023-11-21T05:10:41;12.50;49.90
14604;DHT22;7388;51.078;13.740;2023-11-21T05:13:07;12.60;50.00
14604;DHT22;7388;51.078;13.740;2023-11-21T05:15:35;12.60;50.00
14604;DHT22;7388;51.078;13.740;2023-11-21T05:18:01;12.60;50.00
14604;DHT22;7388;51.078;13.740;2023-11-21T05:20:28;12.60;49.90
14604;DHT22;7388;51.078;13.740;2023-11-21T05:22:54;12.70;50.10
14604;DHT22;7388;51.078;13.740;2023-11-21T05:25:19;12.70;50.00
14604;DHT22;7388;51.078;13.740;2023-11-21T05:27:46;12.70;50.00
14604;DHT22;7388;51.078;13.740;2023-11-21T05:30:13;12.80;49.90
14604;DHT22;7388;51.078;13.740;2023-11-21T05:32:40;12.80;49.80
14604;DHT22;7388;51.078;13.740;2023-11-21T05:35:08;12.90;49.80
14604;DHT22;7388;51.078;13.740;2023-11-21T05:37:38;12.90;49.60
14604;DHT22;7388;51.078;13.740;2023-11-21T05:40:08;12.90;49.60
14604;DHT22;7388;51.078;13.740;2023-11-21T05:42:34;12.90;49.50
14604;DHT22;7388;51.078;13.740;2023-11-21T05:45:00;12.90;49.50
14604;DHT22;7388;51.078;13.740;2023-11-21T05:47:40;13.00;49.50
14604;DHT22;7388;51.078;13.740;2023-11-21T05:50:10;13.00;49.40
14604;DHT22;7388;51.078;13.740;2023-11-21T05:52:38;13.00;49.90
14604;DHT22;7388;51.078;13.740;2023-11-21T05:55:05;13.00;49.20
14604;DHT22;7388;51.078;13.740;2023-11-21T05:57:34;13.00;49.30
14604;DHT22;7388;51.078;13.740;2023-11-21T06:00:07;13.00;49.30
14604;DHT22;7388;51.078;13.740;2023-11-21T06:02:39;12.90;49.40
14604;DHT22;7388;51.078;13.740;2023-11-21T06:05:09;12.90;48.80
14604;DHT22;7388;51.078;13.740;2023-11-21T06:07:36;12.90;49.40
14604;DHT22;7388;51.078;13.740;2023-11-21T06:10:03;12.80;48.70
14604;DHT22;7388;51.078;13.740;2023-11-21T06:12:32;12.80;48.70
14604;DHT22;7388;51.078;13.740;2023-11-21T06:15:02;12.90;49.40
14604;DHT22;7388;51.078;13.740;2023-11-21T06:17:31;12.90;48.90
14604;DHT22;7388;51.078;13.740;2023-11-21T06:19:57;12.80;49.40
14604;DHT22;7388;51.078;13.740;2023-11-21T06:22:23;12.90;48.90
14604;DHT22;7388;51.078;13.740;2023-11-21T06:24:48;12.80;48.80
14604;DHT22;7388;51.078;13.740;2023-11-21T06:27:14;12.80;48.90
14604;DHT22;7388;51.078;13.740;2023-11-21T06:29:41;12.80;48.90
14604;DHT22;7388;51.078;13.740;2023-11-21T06:32:08;12.80;48.90
14604;DHT22;7388;51.078;13.740;2023-11-21T06:34:34;12.90;49.00
14604;DHT22;7388;51.078;13.740;2023-11-21T06:36:59;12.90;49.00
14604;DHT22;7388;51.078;13.740;2023-11-21T06:39:25;12.90;49.00
14604;DHT22;7388;51.078;13.740;2023-11-21T06:41:51;12.90;48.90
14604;DHT22;7388;51.078;13.740;2023-11-21T06:44:16;12.80;48.90
14604;DHT22;7388;51.078;13.740;2023-11-21T06:46:42;12.90;49.10
14604;DHT22;7388;51.078;13.740;2023-11-21T06:49:08;12.80;49.00
14604;DHT22;7388;51.078;13.740;2023-11-21T06:51:34;12.80;49.10
14604;DHT22;7388;51.078;13.740;2023-11-21T06:54:00;12.80;49.30
14604;DHT22;7388;51.078;13.740;2023-11-21T06:56:26;12.80;49.30
14604;DHT22;7388;51.078;13.740;2023-11-21T06:58:52;12.80;49.40
14604;DHT22;7388;51.078;13.740;2023-11-21T07:01:21;12.80;49.40
14604;DHT22;7388;51.078;13.740;2023-11-21T07:03:46;12.80;49.50
14604;DHT22;7388;51.078;13.740;2023-11-21T07:08:38;12.80;49.40
14604;DHT22;7388;51.078;13.740;2023-11-21T07:11:04;12.80;49.40
14604;DHT22;7388;51.078;13.740;2023-11-21T07:13:30;12.80;49.60
14604;DHT22;7388;51.078;13.740;2023-11-21T07:15:58;12.80;49.60
14604;DHT22;7388;51.078;13.740;2023-11-21T07:18:24;12.80;49.70
14604;DHT22;7388;51.078;13.740;2023-11-21T07:20:50;12.80;49.60
14604;DHT22;7388;51.078;13.740;2023-11-21T07:23:15;12.90;49.70
14604;DHT22;7388;51.078;13.740;2023-11-21T07:25:41;12.80;49.60
14604;DHT22;7388;51.078;13.740;2023-11-21T07:28:09;12.90;49.70
14604;DHT22;7388;51.078;13.740;2023-11-21T07:30:35;12.80;49.70
14604;DHT22;7388;51.078;13.740;2023-11-21T07:33:00;12.80;49.70
14604;DHT22;7388;51.078;13.740;2023-11-21T07:35:26;12.80;49.70
14604;DHT22;7388;51.078;13.740;2023-11-21T07:37:52;12.90;49.60
14604;DHT22;7388;51.078;13.740;2023-11-21T07:40:18;12.90;49.70
14604;DHT22;7388;51.078;13.740;2023-11-21T07:42:43;12.90;49.80
14604;DHT22;7388;51.078;13.740;2023-11-21T07:45:09;12.90;49.60
14604;DHT22;7388;51.078;13.740;2023-11-21T07:47:35;12.90;49.90
14604;DHT22;7388;51.078;13.740;2023-11-21T07:50:04;13.00;50.00
14604;DHT22;7388;51.078;13.740;2023-11-21T07:52:30;13.00;49.60
14604;DHT22;7388;51.078;13.740;2023-11-21T07:54:55;13.00;49.40
14604;DHT22;7388;51.078;13.740;2023-11-21T07:57:21;13.00;49.40
14604;DHT22;7388;51.078;13.740;2023-11-21T08:07:08;12.90;49.80
14604;DHT22;7388;51.078;13.740;2023-11-21T08:12:01;12.90;49.70
14604;DHT22;7388;51.078;13.740;2023-11-21T08:16:54;12.90;50.00
14604;DHT22;7388;51.078;13.740;2023-11-21T08:21:50;12.90;50.20
14604;DHT22;7388;51.078;13.740;2023-11-21T08:24:16;12.80;50.70
14604;DHT22;7388;51.078;13.740;2023-11-21T08:26:42;12.70;50.90
14604;DHT22;7388;51.078;13.740;2023-11-21T08:29:08;12.70;51.00
14604;DHT22;7388;51.078;13.740;2023-11-21T08:31:34;12.80;51.00
14604;DHT22;7388;51.078;13.740;2023-11-21T08:34:00;12.80;51.10
14604;DHT22;7388;51.078;13.740;2023-11-21T08:48:46;12.90;51.30
14604;DHT22;7388;51.078;13.740;2023-11-21T08:53:39;12.80;51.50
14604;DHT22;7388;51.078;13.740;2023-11-21T08:56:05;12.70;52.00
14604;DHT22;7388;51.078;13.740;2023-11-21T08:58:31;12.60;52.30
14604;DHT22;7388;51.078;13.740;2023-11-21T09:10:47;12.50;52.80
14604;DHT22;7388;51.078;13.740;2023-11-21T09:13:13;12.50;53.30
14604;DHT22;7388;51.078;13.740;2023-11-21T09:15:39;12.60;52.80
14604;DHT22;7388;51.078;13.740;2023-11-21T09:18:05;12.50;53.00
14604;DHT22;7388;51.078;13.740;2023-11-21T09:20:31;12.60;52.80
14604;DHT22;7388;51.078;13.740;2023-11-21T09:32:42;12.70;52.80
14604;DHT22;7388;51.078;13.740;2023-11-21T09:40:07;12.80;52.00
14604;DHT22;7388;51.078;13.740;2023-11-21T09:42:54;12.90;51.50
14604;DHT22;7388;51.078;13.740;2023-11-21T09:47:55;12.80;51.00
14604;DHT22;7388;51.078;13.740;2023-11-21T09:50:24;12.80;51.00
14604;DHT22;7388;51.078;13.740;2023-11-21T09:53:02;12.80;50.80
14604;DHT22;7388;51.078;13.740;2023-11-21T09:55:34;12.80;51.00
14604;DHT22;7388;51.078;13.740;2023-11-21T09:58:03;12.80;50.80
14604;DHT22;7388;51.078;13.740;2023-11-21T10:00:30;12.70;50.60
14604;DHT22;7388;51.078;13.740;2023-11-21T10:02:58;12.70;50.30
14604;DHT22;7388;51.078;13.740;2023-11-21T10:05:25;12.60;49.80
14604;DHT22;7388;51.078;13.740;2023-11-21T10:07:51;12.50;50.00
14604;DHT22;7388;51.078;13.740;2023-11-21T10:10:22;12.40;50.10
14604;DHT22;7388;51.078;13.740;2023-11-21T10:12:55;12.40;50.20
14604;DHT22;7388;51.078;13.740;2023-11-21T10:15:22;12.30;50.10
14604;DHT22;7388;51.078;13.740;2023-11-21T10:17:53;12.30;50.20
14604;DHT22;7388;51.078;13.740;2023-11-21T10:20:23;12.20;49.50
14604;DHT22;7388;51.078;13.740;2023-11-21T10:27:47;12.10;49.50
14604;DHT22;7388;51.078;13.740;2023-11-21T10:30:15;12.10;49.50
14604;DHT22;7388;51.078;13.740;2023-11-21T10:35:12;12.00;49.40
14604;DHT22;7388;51.078;13.740;2023-11-21T10:42:33;11.90;49.50
14604;DHT22;7388;51.078;13.740;2023-11-21T10:44:59;11.90;49.70
14604;DHT22;7388;51.078;13.740;2023-11-21T10:52:21;11.80;49.30
14604;DHT22;7388;51.078;13.740;2023-11-21T10:54:52;11.80;49.30
14604;DHT22;7388;51.078;13.740;2023-11-21T10:57:18;11.80;49.50
14604;DHT22;7388;51.078;13.740;2023-11-21T11:02:24;11.80;49.10
14604;DHT22;7388;51.078;13.740;2023-11-21T11:04:54;11.70;49.20
14604;DHT22;7388;51.078;13.740;2023-11-21T11:07:26;11.70;48.90
14604;DHT22;7388;51.078;13.740;2023-11-21T11:09:54;11.70;48.50
14604;DHT22;7388;51.078;13.740;2023-11-21T11:12:20;11.60;48.40
14604;DHT22;7388;51.078;13.740;2023-11-21T11:14:48;11.60;48.40
14604;DHT22;7388;51.078;13.740;2023-11-21T11:17:14;11.60;48.40
14604;DHT22;7388;51.078;13.740;2023-11-21T11:19:40;11.60;48.40
14604;DHT22;7388;51.078;13.740;2023-11-21T11:38:21;11.50;48.40
14604;DHT22;7388;51.078;13.740;2023-11-21T11:45:40;11.40;48.40
14604;DHT22;7388;51.078;13.740;2023-11-21T11:48:11;11.40;48.10
14604;DHT22;7388;51.078;13.740;2023-11-21T11:53:15;11.30;47.70
14604;DHT22;7388;51.078;13.740;2023-11-21T11:55:41;11.30;47.90
14604;DHT22;7388;51.078;13.740;2023-11-21T11:58:07;11.30;48.00
14604;DHT22;7388;51.078;13.740;2023-11-21T12:03:03;11.20;47.70
14604;DHT22;7388;51.078;13.740;2023-11-21T12:05:32;11.10;47.40
14604;DHT22;7388;51.078;13.740;2023-11-21T12:15:24;11.00;48.20
14604;DHT22;7388;51.078;13.740;2023-11-21T12:17:51;11.00;48.00
14604;DHT22;7388;51.078;13.740;2023-11-21T12:22:51;11.10;48.30
14604;DHT22;7388;51.078;13.740;2023-11-21T12:27:46;11.10;48.00
14604;DHT22;7388;51.078;13.740;2023-11-21T12:32:40;11.10;48.00
14604;DHT22;7388;51.078;13.740;2023-11-21T12:37:33;11.10;47.90
14604;DHT22;7388;51.078;13.740;2023-11-21T12:47:44;11.10;48.20
14604;DHT22;7388;51.078;13.740;2023-11-21T12:53:06;11.20;48.30
14604;DHT22;7388;51.078;13.740;2023-11-21T12:55:34;11.20;48.10
14604;DHT22;7388;51.078;13.740;2023-11-21T12:58:05;11.20;48.20
14604;DHT22;7388;51.078;13.740;2023-11-21T13:00:39;11.20;47.60
14604;DHT22;7388;51.078;13.740;2023-11-21T13:03:06;11.20;47.60
14604;DHT22;7388;51.078;13.740;2023-11-21T13:13:04;10.90;48.00
14604;DHT22;7388;51.078;13.740;2023-11-21T13:20:41;10.90;48.30
14604;DHT22;7388;51.078;13.740;2023-11-21T13:23:09;11.00;48.30
14604;DHT22;7388;51.078;13.740;2023-11-21T13:28:07;11.00;48.20
14604;DHT22;7388;51.078;13.740;2023-11-21T13:30:33;10.90;48.00
14604;DHT22;7388;51.078;13.740;2023-11-21T13:33:03;10.90;47.90
14604;DHT22;7388;51.078;13.740;2023-11-21T13:35:33;10.90;48.10
14604;DHT22;7388;51.078;13.740;2023-11-21T13:38:08;10.90;48.10
14604;DHT22;7388;51.078;13.740;2023-11-21T13:40:35;10.80;48.00
14604;DHT22;7388;51.078;13.740;2023-11-21T13:43:05;10.90;48.00
14604;DHT22;7388;51.078;13.740;2023-11-21T13:45:36;10.90;47.70
14604;DHT22;7388;51.078;13.740;2023-11-21T13:48:02;10.80;47.50
14604;DHT22;7388;51.078;13.740;2023-11-21T13:50:28;10.80;47.60
14604;DHT22;7388;51.078;13.740;2023-11-21T13:53:01;10.70;47.50
14604;DHT22;7388;51.078;13.740;2023-11-21T13:58:13;10.70;47.40
14604;DHT22;7388;51.078;13.740;2023-11-21T14:03:14;10.60;47.40
14604;DHT22;7388;51.078;13.740;2023-11-21T14:08:13;10.60;47.50
14604;DHT22;7388;51.078;13.740;2023-11-21T14:10:42;10.60;47.30
14604;DHT22;7388;51.078;13.740;2023-11-21T14:13:11;10.60;47.20
14604;DHT22;7388;51.078;13.740;2023-11-21T14:20:40;10.40;47.10
14604;DHT22;7388;51.078;13.740;2023-11-21T14:23:06;10.40;47.20
14604;DHT22;7388;51.078;13.740;2023-11-21T14:32:52;10.30;46.90
14604;DHT22;7388;51.078;13.740;2023-11-21T14:35:18;10.30;47.20
14604;DHT22;7388;51.078;13.740;2023-11-21T14:37:44;10.20;47.30
14604;DHT22;7388;51.078;13.740;2023-11-21T14:50:01;10.10;47.10
14604;DHT22;7388;51.078;13.740;2023-11-21T14:52:46;10.00;47.20
14604;DHT22;7388;51.078;13.740;2023-11-21T14:55:21;10.00;47.10
14604;DHT22;7388;51.078;13.740;2023-11-21T14:57:58;10.00;47.00
14604;DHT22;7388;51.078;13.740;2023-11-21T15:03:01;10.00;47.00
14604;DHT22;7388;51.078;13.740;2023-11-21T15:05:27;9.90;47.10
14604;DHT22;7388;51.078;13.740;2023-11-21T15:07:54;9.90;46.80
14604;DHT22;7388;51.078;13.740;2023-11-21T15:13:11;9.90;46.90
14604;DHT22;7388;51.078;13.740;2023-11-21T15:15:37;9.90;47.00
14604;DHT22;7388;51.078;13.740;2023-11-21T15:18:03;9.90;47.00
14604;DHT22;7388;51.078;13.740;2023-11-21T15:30:16;10.00;47.10
14604;DHT22;7388;51.078;13.740;2023-11-21T15:32:45;9.90;47.20
14604;DHT22;7388;51.078;13.740;2023-11-21T15:35:12;9.90;46.90
14604;DHT22;7388;51.078;13.740;2023-11-21T15:37:40;9.90;47.10
14604;DHT22;7388;51.078;13.740;2023-11-21T15:42:34;9.90;46.90
14604;DHT22;7388;51.078;13.740;2023-11-21T15:57:17;9.70;47.10
14604;DHT22;7388;51.078;13.740;2023-11-21T15:59:44;9.70;47.30
14604;DHT22;7388;51.078;13.740;2023-11-21T16:02:10;9.70;47.30
14604;DHT22;7388;51.078;13.740;2023-11-21T16:07:04;9.70;47.40
14604;DHT22;7388;51.078;13.740;2023-11-21T16:09:32;9.70;47.40
14604;DHT22;7388;51.078;13.740;2023-11-21T16:12:02;9.70;47.60
14604;DHT22;7388;51.078;13.740;2023-11-21T16:24:33;9.80;47.50
14604;DHT22;7388;51.078;13.740;2023-11-21T16:31:52;9.80;47.40
14604;DHT22;7388;51.078;13.740;2023-11-21T16:34:20;9.80;47.10
14604;DHT22;7388;51.078;13.740;2023-11-21T16:39:17;9.70;47.40
14604;DHT22;7388;51.078;13.740;2023-11-21T16:41:45;9.70;47.40
14604;DHT22;7388;51.078;13.740;2023-11-21T16:46:46;9.70;47.30
14604;DHT22;7388;51.078;13.740;2023-11-21T16:49:13;9.70;47.20
14604;DHT22;7388;51.078;13.740;2023-11-21T16:51:38;9.70;47.10
14604;DHT22;7388;51.078;13.740;2023-11-21T16:54:04;9.60;47.10
14604;DHT22;7388;51.078;13.740;2023-11-21T16:58:57;9.60;47.10
14604;DHT22;7388;51.078;13.740;2023-11-21T17:01:23;9.60;46.80
14604;DHT22;7388;51.078;13.740;2023-11-21T17:03:51;9.50;46.60
14604;DHT22;7388;51.078;13.740;2023-11-21T17:11:11;9.40;46.40
14604;DHT22;7388;51.078;13.740;2023-11-21T17:13:43;9.30;46.60
14604;DHT22;7388;51.078;13.740;2023-11-21T17:16:09;9.30;46.70
14604;DHT22;7388;51.078;13.740;2023-11-21T17:18:35;9.30;46.90
14604;DHT22;7388;51.078;13.740;2023-11-21T17:21:01;9.30;46.90
14604;DHT22;7388;51.078;13.740;2023-11-21T17:23:27;9.20;47.00
14604;DHT22;7388;51.078;13.740;2023-11-21T17:30:47;9.30;47.00
14604;DHT22;7388;51.078;13.740;2023-11-21T17:33:13;9.30;47.00
14604;DHT22;7388;51.078;13.740;2023-11-21T17:35:42;9.30;46.90
14604;DHT22;7388;51.078;13.740;2023-11-21T17:38:08;9.30;46.90
14604;DHT22;7388;51.078;13.740;2023-11-21T17:40:34;9.30;46.90
14604;DHT22;7388;51.078;13.740;2023-11-21T17:50:22;9.30;46.50
14604;DHT22;7388;51.078;13.740;2023-11-21T17:52:48;9.20;46.40
14604;DHT22;7388;51.078;13.740;2023-11-21T17:55:14;9.20;46.60
14604;DHT22;7388;51.078;13.740;2023-11-21T17:57:40;9.20;46.70
14604;DHT22;7388;51.078;13.740;2023-11-21T18:00:06;9.10;46.90
14604;DHT22;7388;51.078;13.740;2023-11-21T18:14:50;9.10;46.40
14604;DHT22;7388;51.078;13.740;2023-11-21T18:17:17;9.00;46.50
14604;DHT22;7388;51.078;13.740;2023-11-21T18:19:46;9.10;46.50
14604;DHT22;7388;51.078;13.740;2023-11-21T18:29:32;9.00;46.50
14604;DHT22;7388;51.078;13.740;2023-11-21T18:36:50;9.10;46.30
14604;DHT22;7388;51.078;13.740;2023-11-21T18:39:16;9.00;46.10
14604;DHT22;7388;51.078;13.740;2023-11-21T18:41:43;9.00;46.10
14604;DHT22;7388;51.078;13.740;2023-11-21T18:46:39;8.90;46.30
14604;DHT22;7388;51.078;13.740;2023-11-21T18:49:05;8.90;46.30
14604;DHT22;7388;51.078;13.740;2023-11-21T19:03:56;8.80;45.90
14604;DHT22;7388;51.078;13.740;2023-11-21T19:11:19;8.70;45.80
14604;DHT22;7388;51.078;13.740;2023-11-21T19:13:47;8.70;45.70
14604;DHT22;7388;51.078;13.740;2023-11-21T19:16:13;8.70;45.70
14604;DHT22;7388;51.078;13.740;2023-11-21T19:23:41;8.60;45.40
14604;DHT22;7388;51.078;13.740;2023-11-21T19:26:07;8.60;45.50
14604;DHT22;7388;51.078;13.740;2023-11-21T19:28:33;8.70;45.50
14604;DHT22;7388;51.078;13.740;2023-11-21T19:30:59;8.70;45.20
14604;DHT22;7388;51.078;13.740;2023-11-21T19:35:52;8.70;45.30
14604;DHT22;7388;51.078;13.740;2023-11-21T19:40:47;8.60;45.40
14604;DHT22;7388;51.078;13.740;2023-11-21T19:43:13;8.60;44.90
14604;DHT22;7388;51.078;13.740;2023-11-21T19:45:39;8.60;45.20
14604;DHT22;7388;51.078;13.740;2023-11-21T19:48:05;8.60;45.10
14604;DHT22;7388;51.078;13.740;2023-11-21T19:50:31;8.60;45.20
14604;DHT22;7388;51.078;13.740;2023-11-21T19:52:57;8.60;45.40
14604;DHT22;7388;51.078;13.740;2023-11-21T19:55:23;8.60;45.30
14604;DHT22;7388;51.078;13.740;2023-11-21T20:00:15;8.60;45.30
14604;DHT22;7388;51.078;13.740;2023-11-21T20:02:42;8.50;45.30
14604;DHT22;7388;51.078;13.740;2023-11-21T20:10:01;8.50;45.10
14604;DHT22;7388;51.078;13.740;2023-11-21T20:12:28;8.50;45.20
14604;DHT22;7388;51.078;13.740;2023-11-21T20:22:13;8.40;45.20
14604;DHT22;7388;51.078;13.740;2023-11-21T20:46:42;8.30;45.70
14604;DHT22;7388;51.078;13.740;2023-11-21T20:51:40;8.20;45.30
14604;DHT22;7388;51.078;13.740;2023-11-21T20:56:35;8.20;45.40
14604;DHT22;7388;51.078;13.740;2023-11-21T20:59:01;8.20;45.40
14604;DHT22;7388;51.078;13.740;2023-11-21T21:08:53;8.00;45.30
14604;DHT22;7388;51.078;13.740;2023-11-21T21:11:20;8.00;45.50
14604;DHT22;7388;51.078;13.740;2023-11-21T21:13:47;8.00;45.50
14604;DHT22;7388;51.078;13.740;2023-11-21T21:16:13;8.00;45.60
14604;DHT22;7388;51.078;13.740;2023-11-21T21:21:05;7.90;45.50
14604;DHT22;7388;51.078;13.740;2023-11-21T21:25:57;7.90;45.30
14604;DHT22;7388;51.078;13.740;2023-11-21T21:28:23;7.80;45.20
14604;DHT22;7388;51.078;13.740;2023-11-21T21:30:49;7.80;45.40
14604;DHT22;7388;51.078;13.740;2023-11-21T21:40:35;7.70;45.00
14604;DHT22;7388;51.078;13.740;2023-11-21T21:43:01;7.70;45.30
14604;DHT22;7388;51.078;13.740;2023-11-21T21:47:53;7.60;45.00
14604;DHT22;7388;51.078;13.740;2023-11-21T21:50:20;7.60;45.10
14604;DHT22;7388;51.078;13.740;2023-11-21T21:52:46;7.50;45.20
14604;DHT22;7388;51.078;13.740;2023-11-21T21:55:12;7.50;45.40
14604;DHT22;7388;51.078;13.740;2023-11-21T21:57:45;7.50;45.40
14604;DHT22;7388;51.078;13.740;2023-11-21T22:02:41;7.50;45.60
14604;DHT22;7388;51.078;13.740;2023-11-21T22:07:38;7.40;45.60
14604;DHT22;7388;51.078;13.740;2023-11-21T22:14:57;7.50;45.70
14604;DHT22;7388;51.078;13.740;2023-11-21T22:22:16;7.40;45.40
14604;DHT22;7388;51.078;13.740;2023-11-21T22:24:42;7.40;45.60
14604;DHT22;7388;51.078;13.740;2023-11-21T22:27:08;7.40;45.70
14604;DHT22;7388;51.078;13.740;2023-11-21T22:36:53;7.40;45.60
14604;DHT22;7388;51.078;13.740;2023-11-21T22:39:20;7.40;45.60
14604;DHT22;7388;51.078;13.740;2023-11-21T22:51:35;7.20;45.40
14604;DHT22;7388;51.078;13.740;2023-11-21T22:54:01;7.20;45.60
14604;DHT22;7388;51.078;13.740;2023-11-21T22:56:27;7.20;45.80
14604;DHT22;7388;51.078;13.740;2023-11-21T22:58:52;7.20;46.00
14604;DHT22;7388;51.078;13.740;2023-11-21T23:01:18;7.20;46.00
14604;DHT22;7388;51.078;13.740;2023-11-21T23:03:47;7.20;46.10
14604;DHT22;7388;51.078;13.740;2023-11-21T23:06:19;7.30;46.10
14604;DHT22;7388;51.078;13.740;2023-11-21T23:13:39;7.20;45.50
14604;DHT22;7388;51.078;13.740;2023-11-21T23:16:05;7.30;45.60
14604;DHT22;7388;51.078;13.740;2023-11-21T23:23:24;7.20;45.50
14604;DHT22;7388;51.078;13.740;2023-11-21T23:25:53;7.20;45.60
14604;DHT22;7388;51.078;13.740;2023-11-21T23:28:20;7.20;45.60
14604;DHT22;7388;51.078;13.740;2023-11-21T23:30:47;7.20;45.50
14604;DHT22;7388;51.078;13.740;2023-11-21T23:38:06;7.20;45.50
14604;DHT22;7388;51.078;13.740;2023-11-21T23:40:32;7.10;45.60
14604;DHT22;7388;51.078;13.740;2023-11-21T23:45:25;7.20;45.60
14604;DHT22;7388;51.078;13.740;2023-11-21T23:47:53;7.10;45.60
